HomeShort term forecast

Short term forecast

Graphical weather forecast for the next 48 hours for Montreal:
Short term forecast
This weather forecast is automatically refreshed every 3 hours.

Hourly Experimental Forecast for the next 48 hours ®

Overall summary: Partly cloudy later this morning.

 Date & Hour   Temp   Feel   Baro   Hum   Speed & Bearing   Wind Gust   Precip.%   Precip.   Visibility   Cloud cover   Conditions 
 16/10/2018 - 08:00  2.9°C  -1.8°C  1014.8 hPa  74%  21.1 km/h   49.7 km/h  2%  --  16.1km  9%  Clear 
 16/10/2018 - 09:00  3.4°C  -1.3°C  1015.3 hPa  72%  22.7 km/h   44.6 km/h  3%  0.02 mm/h  16.1km  10%  Clear 
 16/10/2018 - 10:00  3.5°C  -1.3°C  1015.8 hPa  71%  23.9 km/h   40.0 km/h  0%  --  16.1km  25%  Partly Cloudy 
 16/10/2018 - 11:00  4.7°C  0.2°C  1016.0 hPa  65%  24.1 km/h   38.5 km/h  0%  --  16.1km  26%  Partly Cloudy 
 16/10/2018 - 12:00  5.9°C  1.8°C  1015.8 hPa  61%  23.5 km/h   39.2 km/h  4%  0.02 mm/h  16.1km  10%  Clear 
 16/10/2018 - 13:00  6.9°C  3.1°C  1015.2 hPa  57%  23.0 km/h   40.4 km/h  7%  0.04 mm/h  16.1km  19%  Clear 
 16/10/2018 - 14:00  7.3°C  3.8°C  1014.6 hPa  57%  22.5 km/h   41.5 km/h  7%  0.03 mm/h  16.1km  38%  Partly Cloudy 
 16/10/2018 - 15:00  7.8°C  4.5°C  1014.1 hPa  58%  20.7 km/h   38.2 km/h  5%  0.01 mm/h  16.1km  45%  Partly Cloudy 
 16/10/2018 - 16:00  8.1°C  5.3°C  1013.2 hPa  59%  17.9 km/h   35.7 km/h  7%  0.02 mm/h  16.1km  41%  Partly Cloudy 
 16/10/2018 - 17:00  8.6°C  6.1°C  1012.5 hPa  59%  16.2 km/h   35.2 km/h  6%  0.01 mm/h  16.1km  50%  Partly Cloudy 
 16/10/2018 - 18:00  8.7°C  6.3°C  1012.1 hPa  61%  15.2 km/h   34.0 km/h  0%  --  16.1km  65%  Mostly Cloudy 
 16/10/2018 - 19:00  8.4°C  5.7°C  1011.9 hPa  63%  17.1 km/h   35.8 km/h  4%  0.01 mm/h  16.1km  55%  Partly Cloudy 
 16/10/2018 - 20:00  8.1°C  5.3°C  1011.6 hPa  64%  17.5 km/h   40.9 km/h  0%  --  16.1km  61%  Mostly Cloudy 
 16/10/2018 - 21:00  7.8°C  4.8°C  1011.2 hPa  65%  18.4 km/h   43.9 km/h  3%  0.01 mm/h  16.1km  65%  Mostly Cloudy 
 16/10/2018 - 22:00  6.9°C  3.7°C  1010.9 hPa  69%  18.0 km/h   47.7 km/h  3%  0.01 mm/h  16.1km  59%  Partly Cloudy 
 16/10/2018 - 23:00  6.6°C  3.4°C  1010.5 hPa  70%  17.8 km/h   50.0 km/h  4%  0.01 mm/h  16.1km  46%  Partly Cloudy 
 17/10/2018 - 00:00  6.2°C  2.9°C  1010.0 hPa  73%  17.7 km/h   49.7 km/h  5%  0.01 mm/h  16.1km  49%  Partly Cloudy 
 17/10/2018 - 01:00  6.7°C  3.5°C  1009.4 hPa  72%  17.7 km/h   48.1 km/h  7%  0.02 mm/h  16.1km  51%  Partly Cloudy 
 17/10/2018 - 02:00  7.0°C  3.9°C  1008.7 hPa  72%  17.7 km/h   46.5 km/h  9%  0.04 mm/h  16.1km  56%  Partly Cloudy 
 17/10/2018 - 03:00  7.4°C  4.3°C  1008.0 hPa  72%  18.4 km/h   45.5 km/h  9%  0.03 mm/h  16.1km  64%  Mostly Cloudy 
 17/10/2018 - 04:00  7.2°C  4.0°C  1007.3 hPa  75%  19.3 km/h   44.4 km/h  17%  0.09 mm/h  16.1km  73%  Mostly Cloudy 
 17/10/2018 - 05:00  7.2°C  3.9°C  1006.7 hPa  76%  19.1 km/h   43.4 km/h  11%  0.04 mm/h  16.1km  81%  Mostly Cloudy 
 17/10/2018 - 06:00  6.7°C  3.5°C  1006.5 hPa  79%  18.4 km/h   42.7 km/h  17%  0.09 mm/h  16.1km  82%  Mostly Cloudy 
 17/10/2018 - 07:00  6.5°C  3.2°C  1006.5 hPa  80%  18.2 km/h   42.2 km/h  22%  0.16 mm/h  16.1km  77%  Mostly Cloudy 
 17/10/2018 - 08:00  6.1°C  2.6°C  1006.5 hPa  81%  18.6 km/h   42.1 km/h  21%  0.19 mm/h  16.1km  68%  Mostly Cloudy 
 17/10/2018 - 09:00  6.9°C  3.4°C  1006.5 hPa  75%  20.4 km/h   42.4 km/h  17%  0.15 mm/h  16.1km  62%  Mostly Cloudy 
 17/10/2018 - 10:00  7.5°C  3.9°C  1006.4 hPa  70%  23.2 km/h   42.2 km/h  11%  0.08 mm/h  16.1km  53%  Partly Cloudy 
 17/10/2018 - 11:00  7.5°C  3.7°C  1006.3 hPa  68%  25.3 km/h   41.5 km/h  7%  0.04 mm/h  16.1km  50%  Partly Cloudy 
 17/10/2018 - 12:00  7.8°C  4.0°C  1006.3 hPa  64%  26.3 km/h   41.5 km/h  8%  0.04 mm/h  16.1km  47%  Breezy and Partly Cloudy 
 17/10/2018 - 13:00  7.8°C  3.9°C  1006.2 hPa  61%  27.4 km/h   42.1 km/h  11%  0.07 mm/h  16.1km  63%  Breezy and Mostly Cloudy 
 17/10/2018 - 14:00  7.4°C  3.3°C  1006.4 hPa  60%  28.2 km/h   42.5 km/h  12%  0.11 mm/h  16.1km  79%  Breezy and Mostly Cloudy 
 17/10/2018 - 15:00  7.0°C  2.9°C  1006.9 hPa  59%  27.8 km/h   41.9 km/h  12%  0.12 mm/h  16.1km  79%  Breezy and Mostly Cloudy 
 17/10/2018 - 16:00  6.9°C  2.8°C  1007.6 hPa  57%  27.3 km/h   40.9 km/h  11%  0.12 mm/h  16.1km  91%  Breezy and Mostly Cloudy 
 17/10/2018 - 17:00  6.7°C  2.6°C  1008.4 hPa  56%  26.0 km/h   40.6 km/h  10%  0.10 mm/h  14.5km  88%  Mostly Cloudy 
 17/10/2018 - 18:00  6.2°C  2.1°C  1009.3 hPa  55%  24.6 km/h   41.5 km/h  9%  0.07 mm/h  15.4km  75%  Mostly Cloudy 
 17/10/2018 - 19:00  5.5°C  1.4°C  1010.5 hPa  56%  22.7 km/h   42.9 km/h  6%  0.03 mm/h  16.1km  72%  Mostly Cloudy 
 17/10/2018 - 20:00  4.8°C  0.6°C  1011.6 hPa  57%  21.7 km/h   44.0 km/h  4%  0.01 mm/h  16.1km  82%  Mostly Cloudy 
 17/10/2018 - 21:00  4.2°C  -0.2°C  1012.3 hPa  58%  22.0 km/h   44.2 km/h  4%  0.01 mm/h  16.1km  84%  Mostly Cloudy 
 17/10/2018 - 22:00  3.6°C  -1.0°C  1013.0 hPa  59%  22.6 km/h   44.1 km/h  0%  --  16.1km  75%  Mostly Cloudy 
 17/10/2018 - 23:00  3.1°C  -1.7°C  1013.7 hPa  59%  23.5 km/h   44.3 km/h  5%  0.02 mm/h  16.1km  48%  Partly Cloudy 
 18/10/2018 - 00:00  2.5°C  -2.5°C  1014.3 hPa  60%  23.9 km/h   45.1 km/h  0%  --  16.1km  41%  Partly Cloudy 
 18/10/2018 - 01:00  2.0°C  -3.3°C  1015.0 hPa  60%  24.5 km/h   46.2 km/h  0%  --  16.1km  45%  Breezy and Partly Cloudy 
 18/10/2018 - 02:00  1.6°C  -3.9°C  1015.8 hPa  59%  24.9 km/h   47.2 km/h  0%  --  16.1km  51%  Breezy and Partly Cloudy 
 18/10/2018 - 03:00  1.1°C  -4.5°C  1016.5 hPa  59%  25.3 km/h   48.1 km/h  0%  --  16.1km  41%  Breezy and Partly Cloudy 
 18/10/2018 - 04:00  0.6°C  -5.2°C  1017.3 hPa  58%  25.3 km/h   48.9 km/h  0%  --  16.1km  32%  Breezy and Partly Cloudy 
 18/10/2018 - 05:00  -0.3°C  -6.4°C  1018.2 hPa  60%  25.5 km/h   49.0 km/h  0%  --  16.1km  28%  Breezy and Partly Cloudy 
 18/10/2018 - 06:00  -1.0°C  -7.2°C  1019.1 hPa  61%  24.9 km/h   48.2 km/h  0%  --  16.1km  18%  Breezy 
 18/10/2018 - 07:00  -1.4°C  -7.6°C  1020.2 hPa  62%  24.0 km/h   46.7 km/h  0%  --  16.1km  8%  Clear 
Test

 

Past weather and reports

Past weatherFind in this section the past weather conditions, weather archive, graphics, reports and statistics.

Current conditions

Current weather condition for MontrealAll you need to know about the current weather conditions for Montreal. Weather data is updated every 10 minutes.

Weather forecast

Current Montreal weatherSince 2004, celinium.com website has provided accurate weather forecast for Montreal's island.